Alma, West Virginia
Current Conditions -  °F | °C
As of 3:53 PM on Tuesday 21 Oct 2014 (Local Time) from KPKB Reporting Station
Light Rain Light Rain  
Wind Chill: 51°   Ceiling: 2300
Heat Index: 51°   Visibility: 10mi
Dew Point: 47°   Wind: 8mph
Humidity: 86%   Direction: 300°WNW
Pressure: 29.99"   Gusts: 17mph
Location:  39.43°N, 80.84°W
Report Text: KPKB 211953Z 30007G15KT 10SM -RA SCT012 BKN023 OVC027 11/08 A2999 RMK AO2 RAE24B46 SLP156 P0001 T01060083
Loading
Personal Weather Stations






























Interactive Weather Map
Tropical Storm Tracking
New forecast layout! Learn more

10-Day Weather Forecast

Advertisements
Track Severe Weather on mobile